Time;durP1;ratioP1;P1;durP2;ratioP2;P2;SDS_P1;SDS_P2;PMS_P1;PMS_P2;Temp;Humidity;BMP_temperature;BMP_pressure;BME280_temperature;BME280_humidity;BME280_pressure;Samples;Min_cycle;Max_cycle;Signal;HPM_P1;HPM_P2
2022/09/30 00:02:11;;;;;;;;;29.00;25.00;;;;;;;;5084919;27;45449;-76
2022/09/30 00:04:36;;;;;;;;;34.33;29.00;;;;;;;;5077209;27;46698;-77
2022/09/30 00:07:05;;;;;;;;;24.33;22.67;;;;;;;;5068519;27;45875;-77
2022/09/30 00:09:31;;;;;;;;;27.33;24.67;;;;;;;;5088769;27;46757;-78
2022/09/30 00:11:56;;;;;;;;;25.00;22.33;;;;;;;;5062892;27;45513;-78
2022/09/30 00:14:23;;;;;;;;;30.00;27.00;;;;;;;;5074302;27;45691;-77
2022/09/30 00:16:49;;;;;;;;;30.00;26.33;;;;;;;;5052875;28;45657;-77
2022/09/30 00:19:14;;;;;;;;;29.33;28.00;;;;;;;;5059413;28;46096;-78
2022/09/30 00:21:40;;;;;;;;;32.33;28.67;;;;;;;;5068806;28;45474;-77
2022/09/30 00:24:06;;;;;;;;;29.33;23.00;;;;;;;;5074803;27;45953;-77
2022/09/30 00:26:33;;;;;;;;;32.00;27.67;;;;;;;;5080614;27;45460;-78
2022/09/30 00:28:59;;;;;;;;;33.00;30.00;;;;;;;;5081529;27;45441;-76
2022/09/30 00:31:26;;;;;;;;;26.00;23.00;;;;;;;;5083408;27;45750;-77
2022/09/30 00:34:06;;;;;;;;;31.67;26.00;;;;;;;;5084904;27;45496;-76
2022/09/30 00:36:44;;;;;;;;;29.33;26.00;;;;;;;;5091620;27;45450;-77
2022/09/30 00:39:30;;;;;;;;;28.00;24.67;;;;;;;;5071068;27;46138;-78
2022/09/30 00:41:58;;;;;;;;;27.33;26.33;;;;;;;;5050873;28;45793;-77
2022/09/30 00:44:38;;;;;;;;;29.33;26.33;;;;;;;;5080685;27;45370;-78
2022/09/30 00:47:05;;;;;;;;;28.33;27.00;;;;;;;;5093565;27;45292;-77
2022/09/30 00:49:31;;;;;;;;;31.67;26.00;;;;;;;;5067121;27;46626;-76
2022/09/30 00:51:57;;;;;;;;;26.00;23.33;;;;;;;;5075673;27;45675;-77
2022/09/30 00:54:28;;;;;;;;;27.67;24.33;;;;;;;;5072067;27;45988;-77
2022/09/30 00:56:56;;;;;;;;;31.00;26.67;;;;;;;;5076206;28;45644;-77
2022/09/30 00:59:28;;;;;;;;;21.00;21.00;;;;;;;;5076126;27;45902;-76
2022/09/30 01:01:54;;;;;;;;;26.00;24.00;;;;;;;;5074222;27;45481;-78
2022/09/30 01:04:23;;;;;;;;;28.00;25.67;;;;;;;;5063172;27;45424;-77
2022/09/30 01:06:49;;;;;;;;;28.33;25.33;;;;;;;;5075640;27;45382;-77
2022/09/30 01:09:14;;;;;;;;;31.00;23.67;;;;;;;;5069687;27;45907;-76
2022/09/30 01:11:40;;;;;;;;;25.33;21.00;;;;;;;;5077288;27;45449;-78
2022/09/30 01:14:08;;;;;;;;;26.67;24.00;;;;;;;;5071058;27;45458;-77
2022/09/30 01:16:34;;;;;;;;;25.33;23.00;;;;;;;;5077967;27;45373;-76
2022/09/30 01:19:11;;;;;;;;;25.67;22.67;;;;;;;;5070475;27;45666;-77
2022/09/30 01:21:51;;;;;;;;;26.33;23.33;;;;;;;;5064037;28;45732;-77
2022/09/30 01:24:28;;;;;;;;;27.67;25.33;;;;;;;;5067102;28;45447;-77
2022/09/30 01:27:01;;;;;;;;;23.67;23.00;;;;;;;;5068004;28;45824;-76
2022/09/30 01:29:35;;;;;;;;;24.33;23.00;;;;;;;;5076875;27;45420;-77
2022/09/30 01:32:19;;;;;;;;;22.67;22.33;;;;;;;;5078929;27;45732;-76
2022/09/30 01:34:44;;;;;;;;;22.67;21.67;;;;;;;;5076660;27;45897;-75
2022/09/30 01:37:24;;;;;;;;;25.33;25.33;;;;;;;;5077457;27;45744;-76
2022/09/30 01:40:08;;;;;;;;;23.00;22.00;;;;;;;;5078936;27;46524;-77
2022/09/30 01:42:52;;;;;;;;;27.67;24.67;;;;;;;;5067365;28;45347;-77
2022/09/30 01:45:23;;;;;;;;;25.33;23.00;;;;;;;;5074712;28;45540;-77
2022/09/30 01:47:57;;;;;;;;;22.33;21.33;;;;;;;;5078271;27;45853;-76
2022/09/30 01:50:28;;;;;;;;;22.67;21.67;;;;;;;;5076806;28;47052;-77
2022/09/30 01:53:09;;;;;;;;;24.00;21.67;;;;;;;;5072671;28;45446;-76
2022/09/30 01:56:01;;;;;;;;;25.33;22.00;;;;;;;;5078502;27;45478;-76
2022/09/30 01:58:50;;;;;;;;;16.00;16.00;;;;;;;;5043667;27;46247;-77
2022/09/30 02:01:24;;;;;;;;;27.33;24.33;;;;;;;;5065044;27;47056;-76
2022/09/30 02:03:54;;;;;;;;;24.00;22.00;;;;;;;;5074594;27;45525;-77
2022/09/30 02:06:25;;;;;;;;;21.67;19.67;;;;;;;;5064480;27;45441;-77
2022/09/30 02:08:56;;;;;;;;;25.00;21.67;;;;;;;;5081094;27;45524;-78
2022/09/30 02:11:24;;;;;;;;;23.67;23.00;;;;;;;;5055515;28;47664;-76
2022/09/30 02:13:55;;;;;;;;;21.33;21.33;;;;;;;;5054698;28;45842;-77
2022/09/30 02:16:31;;;;;;;;;19.00;18.00;;;;;;;;5064414;28;45651;-77
2022/09/30 02:19:17;;;;;;;;;25.67;21.33;;;;;;;;5064238;27;45708;-78
2022/09/30 02:21:43;;;;;;;;;23.00;20.67;;;;;;;;5072393;27;45565;-77
2022/09/30 02:24:13;;;;;;;;;21.00;20.00;;;;;;;;5056392;27;45739;-75
2022/09/30 02:26:40;;;;;;;;;23.00;23.00;;;;;;;;5073049;27;45415;-77
2022/09/30 02:29:06;;;;;;;;;22.33;19.67;;;;;;;;5069323;27;45358;-76
2022/09/30 02:31:33;;;;;;;;;20.33;19.00;;;;;;;;5070928;28;46290;-75
2022/09/30 02:34:06;;;;;;;;;21.33;20.33;;;;;;;;5074279;27;45499;-76
2022/09/30 02:36:38;;;;;;;;;24.33;21.00;;;;;;;;5066072;27;45502;-77
2022/09/30 02:39:05;;;;;;;;;23.67;22.00;;;;;;;;5072744;28;45631;-76
2022/09/30 02:41:34;;;;;;;;;20.33;20.00;;;;;;;;5072341;27;45673;-78
2022/09/30 02:44:01;;;;;;;;;23.33;19.00;;;;;;;;5085257;27;45903;-75
2022/09/30 02:46:45;;;;;;;;;20.00;17.33;;;;;;;;5070367;27;45785;-75
2022/09/30 02:49:10;;;;;;;;;20.33;18.67;;;;;;;;5050416;28;47176;-76
2022/09/30 02:51:50;;;;;;;;;24.00;23.00;;;;;;;;5061508;28;47859;-76
2022/09/30 02:54:35;;;;;;;;;21.33;15.67;;;;;;;;5052202;28;45418;-76
2022/09/30 02:57:10;;;;;;;;;20.33;18.67;;;;;;;;5051922;28;45859;-75
2022/09/30 02:59:36;;;;;;;;;25.00;21.67;;;;;;;;5077604;27;45854;-76
2022/09/30 03:02:01;;;;;;;;;24.67;23.33;;;;;;;;5061131;28;45658;-76
2022/09/30 03:04:29;;;;;;;;;21.33;20.67;;;;;;;;5074586;27;45334;-76
2022/09/30 03:06:55;;;;;;;;;21.67;19.67;;;;;;;;5065769;28;45700;-76
2022/09/30 03:09:25;;;;;;;;;21.33;18.67;;;;;;;;5072010;27;46085;-77
2022/09/30 03:11:54;;;;;;;;;25.67;23.00;;;;;;;;5093415;27;45661;-78
2022/09/30 03:14:31;;;;;;;;;20.33;20.00;;;;;;;;5085379;27;45513;-77
2022/09/30 03:16:56;;;;;;;;;22.67;21.67;;;;;;;;5080500;27;45825;-76
2022/09/30 03:19:31;;;;;;;;;23.67;22.33;;;;;;;;5083174;27;45928;-76
2022/09/30 03:22:05;;;;;;;;;21.67;20.00;;;;;;;;5082390;27;46450;-76
2022/09/30 03:24:33;;;;;;;;;24.33;23.67;;;;;;;;5109546;27;45897;-76
2022/09/30 03:27:15;;;;;;;;;24.67;21.33;;;;;;;;5112597;27;45742;-75
2022/09/30 03:29:56;;;;;;;;;26.00;23.33;;;;;;;;5097722;27;46697;-74
2022/09/30 03:32:21;;;;;;;;;21.67;18.00;;;;;;;;5113839;27;46484;-76
2022/09/30 03:34:46;;;;;;;;;20.33;18.33;;;;;;;;5074847;27;45431;-76
2022/09/30 03:37:35;;;;;;;;;22.67;19.67;;;;;;;;5086539;27;45578;-76
2022/09/30 03:40:23;;;;;;;;;21.33;19.67;;;;;;;;5087450;27;45787;-75
2022/09/30 03:42:54;;;;;;;;;20.33;20.33;;;;;;;;5080848;27;46080;-76
2022/09/30 03:45:26;;;;;;;;;23.00;21.33;;;;;;;;5089656;27;45520;-75
2022/09/30 03:47:54;;;;;;;;;22.00;20.67;;;;;;;;5094075;27;45666;-75
2022/09/30 03:50:22;;;;;;;;;26.00;21.33;;;;;;;;5079036;27;45431;-76
2022/09/30 03:52:48;;;;;;;;;22.00;20.67;;;;;;;;5098494;27;45341;-76
2022/09/30 03:55:14;;;;;;;;;21.67;19.00;;;;;;;;5098020;27;45575;-76
2022/09/30 03:57:40;;;;;;;;;21.33;17.33;;;;;;;;5083620;27;45466;-75
2022/09/30 04:00:06;;;;;;;;;21.67;20.67;;;;;;;;5089880;27;45359;-77
2022/09/30 04:02:31;;;;;;;;;24.33;21.67;;;;;;;;5081144;27;45705;-77
2022/09/30 04:04:57;;;;;;;;;24.00;21.67;;;;;;;;5076672;27;45958;-77
2022/09/30 04:07:23;;;;;;;;;23.00;21.33;;;;;;;;5097718;27;45380;-76
2022/09/30 04:09:49;;;;;;;;;24.00;21.67;;;;;;;;5074764;28;45701;-76
2022/09/30 04:12:14;;;;;;;;;18.00;16.67;;;;;;;;5067667;27;47322;-76
2022/09/30 04:14:39;;;;;;;;;19.00;17.50;;;;;;;;5078186;27;45406;-77
2022/09/30 04:17:05;;;;;;;;;23.67;20.00;;;;;;;;5078650;27;45582;-77
2022/09/30 04:19:34;;;;;;;;;22.00;22.00;;;;;;;;5060130;28;45457;-77
2022/09/30 04:22:00;;;;;;;;;16.67;15.33;;;;;;;;5083912;27;46553;-78
2022/09/30 04:24:25;;;;;;;;;21.00;19.00;;;;;;;;5053778;28;45445;-82
2022/09/30 04:26:51;;;;;;;;;21.33;19.00;;;;;;;;5059216;27;45368;-78
2022/09/30 04:29:16;;;;;;;;;36.00;30.00;;;;;;;;5063139;28;45535;-78
2022/09/30 04:31:43;;;;;;;;;23.00;19.67;;;;;;;;5058225;28;45479;-79
2022/09/30 04:34:09;;;;;;;;;23.00;21.33;;;;;;;;5077538;27;45402;-80
2022/09/30 04:36:35;;;;;;;;;19.33;17.67;;;;;;;;5093049;27;45501;-78
2022/09/30 04:39:03;;;;;;;;;26.00;23.33;;;;;;;;5054495;28;45797;-81
2022/09/30 04:41:32;;;;;;;;;19.00;19.00;;;;;;;;5073072;28;45710;-81
2022/09/30 04:43:59;;;;;;;;;27.00;20.33;;;;;;;;5055971;28;45403;-79
2022/09/30 04:46:25;;;;;;;;;22.00;18.33;;;;;;;;5081876;27;45540;-81
2022/09/30 04:48:52;;;;;;;;;22.00;18.00;;;;;;;;5070716;27;45497;-81
2022/09/30 04:51:19;;;;;;;;;25.33;21.67;;;;;;;;5065757;28;45833;-80
2022/09/30 04:53:46;;;;;;;;;21.67;19.67;;;;;;;;5072291;27;45795;-79
2022/09/30 04:56:15;;;;;;;;;24.33;22.00;;;;;;;;5057266;28;45526;-79
2022/09/30 04:58:42;;;;;;;;;22.00;20.00;;;;;;;;5066043;28;45779;-81
2022/09/30 05:01:13;;;;;;;;;20.00;19.00;;;;;;;;5067369;27;45827;-78
2022/09/30 05:03:39;;;;;;;;;19.67;18.33;;;;;;;;5069640;27;45449;-79
2022/09/30 05:06:04;;;;;;;;;19.33;16.67;;;;;;;;5045217;28;45511;-79
2022/09/30 05:08:32;;;;;;;;;19.33;18.33;;;;;;;;5066820;27;45553;-80
2022/09/30 05:11:02;;;;;;;;;20.00;18.33;;;;;;;;5067971;28;46292;-79
2022/09/30 05:13:32;;;;;;;;;22.67;18.67;;;;;;;;5049485;27;45877;-80
2022/09/30 05:15:59;;;;;;;;;19.00;19.00;;;;;;;;5054029;28;45727;-80
2022/09/30 05:18:27;;;;;;;;;19.33;18.67;;;;;;;;5050698;28;46209;-79
2022/09/30 05:20:53;;;;;;;;;27.00;23.33;;;;;;;;5050895;28;48478;-81
2022/09/30 05:23:20;;;;;;;;;22.00;19.00;;;;;;;;5057622;28;45999;-80
2022/09/30 05:25:46;;;;;;;;;20.00;18.00;;;;;;;;5077396;27;45491;-81
2022/09/30 05:28:12;;;;;;;;;17.00;17.00;;;;;;;;5055657;28;45810;-78
2022/09/30 05:30:37;;;;;;;;;20.33;19.67;;;;;;;;5050823;28;46513;-79
2022/09/30 05:33:03;;;;;;;;;22.67;16.67;;;;;;;;5058948;28;45810;-77
2022/09/30 05:35:28;;;;;;;;;20.00;19.33;;;;;;;;5082494;27;45354;-78
2022/09/30 05:37:54;;;;;;;;;24.00;21.33;;;;;;;;5074142;27;45464;-77
2022/09/30 05:40:20;;;;;;;;;31.00;26.33;;;;;;;;5075053;28;46283;-79
2022/09/30 05:42:46;;;;;;;;;19.00;18.00;;;;;;;;5052349;28;45429;-84
2022/09/30 05:45:11;;;;;;;;;24.00;20.33;;;;;;;;5079804;27;45443;-80
2022/09/30 05:47:38;;;;;;;;;24.33;23.00;;;;;;;;5057390;27;46173;-83
2022/09/30 05:50:03;;;;;;;;;20.33;18.33;;;;;;;;5060950;28;46195;-80
2022/09/30 05:52:28;;;;;;;;;19.00;18.00;;;;;;;;5088178;27;45849;-81
2022/09/30 05:54:56;;;;;;;;;18.33;18.33;;;;;;;;5078667;28;45865;-81
2022/09/30 05:57:21;;;;;;;;;24.00;19.67;;;;;;;;5078730;28;45511;-82
2022/09/30 05:59:47;;;;;;;;;16.00;14.33;;;;;;;;5070341;28;46595;-81
2022/09/30 06:02:12;;;;;;;;;19.00;17.00;;;;;;;;5060227;27;45558;-81
2022/09/30 06:04:38;;;;;;;;;17.00;17.00;;;;;;;;5074098;27;45386;-82
2022/09/30 06:07:04;;;;;;;;;19.00;19.00;;;;;;;;5079572;27;45785;-80
2022/09/30 06:09:29;;;;;;;;;15.67;15.67;;;;;;;;5069297;27;46400;-81
2022/09/30 06:11:57;;;;;;;;;18.67;16.33;;;;;;;;5071457;27;45891;-81
2022/09/30 06:14:23;;;;;;;;;15.67;15.33;;;;;;;;5063890;28;45398;-80
2022/09/30 06:16:48;;;;;;;;;22.67;19.67;;;;;;;;5071344;27;45421;-80
2022/09/30 06:19:13;;;;;;;;;13.00;13.00;;;;;;;;5062595;28;46066;-79
2022/09/30 06:21:39;;;;;;;;;28.67;22.00;;;;;;;;5056023;27;45575;-80
2022/09/30 06:24:04;;;;;;;;;20.67;17.00;;;;;;;;5069840;28;46267;-81
2022/09/30 06:26:29;;;;;;;;;19.00;18.00;;;;;;;;5065245;27;45998;-82
2022/09/30 06:28:55;;;;;;;;;30.00;25.33;;;;;;;;5064892;28;47034;-82
2022/09/30 06:31:21;;;;;;;;;25.33;21.33;;;;;;;;5091342;27;45500;-83
2022/09/30 06:33:56;;;;;;;;;20.33;20.00;;;;;;;;5086613;27;45572;-84
2022/09/30 06:36:21;;;;;;;;;23.33;19.33;;;;;;;;5072855;27;45406;-84
2022/09/30 06:38:50;;;;;;;;;26.67;23.67;;;;;;;;5063544;28;47559;-81
2022/09/30 06:41:15;;;;;;;;;24.33;22.00;;;;;;;;5066891;27;45481;-83
2022/09/30 06:43:41;;;;;;;;;28.67;25.33;;;;;;;;5070700;27;45702;-79
2022/09/30 06:46:11;;;;;;;;;19.00;19.00;;;;;;;;5064075;27;45696;-85
2022/09/30 06:48:36;;;;;;;;;25.67;24.00;;;;;;;;5076204;27;46373;-75
2022/09/30 06:51:02;;;;;;;;;33.00;28.00;;;;;;;;5063383;27;46091;-77
2022/09/30 06:53:28;;;;;;;;;24.67;23.67;;;;;;;;5079555;27;45411;-76
2022/09/30 06:55:57;;;;;;;;;22.00;20.33;;;;;;;;5052577;27;45802;-76
2022/09/30 06:58:23;;;;;;;;;26.33;22.33;;;;;;;;5076138;27;46303;-74
2022/09/30 07:00:57;;;;;;;;;22.33;17.33;;;;;;;;5075808;27;45551;-76
2022/09/30 07:03:25;;;;;;;;;18.00;15.67;;;;;;;;5073037;27;45685;-76
2022/09/30 07:06:09;;;;;;;;;22.00;17.33;;;;;;;;5083473;27;45444;-76
2022/09/30 07:08:35;;;;;;;;;16.67;15.67;;;;;;;;5091600;27;45933;-76
2022/09/30 07:11:03;;;;;;;;;21.00;18.67;;;;;;;;5075924;27;46126;-76
2022/09/30 07:13:28;;;;;;;;;19.67;18.33;;;;;;;;5070789;27;45439;-74
2022/09/30 07:15:55;;;;;;;;;25.67;19.33;;;;;;;;5076057;27;45396;-75
2022/09/30 07:18:21;;;;;;;;;21.67;17.33;;;;;;;;5082091;27;46237;-75
2022/09/30 07:20:50;;;;;;;;;25.33;24.00;;;;;;;;5076699;28;45835;-77
2022/09/30 07:23:15;;;;;;;;;24.67;23.33;;;;;;;;5067221;27;45400;-76
2022/09/30 07:25:47;;;;;;;;;19.67;17.33;;;;;;;;5070274;28;45557;-75
2022/09/30 07:28:12;;;;;;;;;21.33;21.33;;;;;;;;5073823;27;46589;-76
2022/09/30 07:30:40;;;;;;;;;24.00;24.00;;;;;;;;5071510;27;45624;-74
2022/09/30 07:33:05;;;;;;;;;20.00;20.00;;;;;;;;5064229;27;45697;-75
2022/09/30 07:35:31;;;;;;;;;26.00;22.00;;;;;;;;5091685;27;45821;-74
2022/09/30 07:37:56;;;;;;;;;26.00;24.00;;;;;;;;5089630;27;46132;-74
2022/09/30 07:40:21;;;;;;;;;27.67;24.67;;;;;;;;5071102;27;45704;-74
2022/09/30 07:42:46;;;;;;;;;27.00;24.33;;;;;;;;5090792;27;45780;-76
2022/09/30 07:45:15;;;;;;;;;28.67;25.00;;;;;;;;5097345;27;45445;-76
2022/09/30 07:47:41;;;;;;;;;32.67;29.33;;;;;;;;5094054;27;45788;-76
2022/09/30 07:50:09;;;;;;;;;25.33;25.00;;;;;;;;5067884;28;45683;-77
2022/09/30 07:52:34;;;;;;;;;30.00;27.67;;;;;;;;5066438;27;45788;-76
2022/09/30 07:54:59;;;;;;;;;32.33;27.67;;;;;;;;5070450;27;45809;-75
2022/09/30 07:57:24;;;;;;;;;29.00;24.33;;;;;;;;5083999;27;46280;-76
2022/09/30 07:59:50;;;;;;;;;27.00;27.00;;;;;;;;5068844;27;45421;-75
2022/09/30 08:02:16;;;;;;;;;28.00;26.00;;;;;;;;5077586;28;45386;-74
2022/09/30 08:04:42;;;;;;;;;26.67;25.00;;;;;;;;5075038;27;45449;-74
2022/09/30 08:07:07;;;;;;;;;29.33;23.00;;;;;;;;5064853;27;46353;-76
2022/09/30 08:09:33;;;;;;;;;28.33;23.00;;;;;;;;5083251;27;45919;-74
2022/09/30 08:12:00;;;;;;;;;26.33;26.33;;;;;;;;5077301;27;45414;-75
2022/09/30 08:14:26;;;;;;;;;36.33;29.67;;;;;;;;5075339;27;45384;-75
2022/09/30 08:16:52;;;;;;;;;26.33;25.33;;;;;;;;5050173;27;47373;-76
2022/09/30 08:19:19;;;;;;;;;28.67;26.33;;;;;;;;5057865;28;45526;-75
2022/09/30 08:21:44;;;;;;;;;35.33;29.33;;;;;;;;5059740;27;45416;-75
2022/09/30 08:24:10;;;;;;;;;32.00;29.33;;;;;;;;5055953;27;45577;-74
2022/09/30 08:26:35;;;;;;;;;35.00;31.33;;;;;;;;5056535;27;46244;-74
2022/09/30 08:29:00;;;;;;;;;33.33;26.67;;;;;;;;5079841;27;45701;-76
2022/09/30 08:31:26;;;;;;;;;29.00;27.00;;;;;;;;5062278;28;45814;-76
2022/09/30 08:33:52;;;;;;;;;28.33;27.67;;;;;;;;5073085;28;45785;-76
2022/09/30 08:36:19;;;;;;;;;25.33;24.33;;;;;;;;5089164;27;45558;-74
2022/09/30 08:38:44;;;;;;;;;26.33;24.67;;;;;;;;5083210;27;45965;-75
2022/09/30 08:41:15;;;;;;;;;24.33;24.33;;;;;;;;5074021;27;45752;-75
2022/09/30 08:43:52;;;;;;;;;28.67;26.00;;;;;;;;5074129;27;45776;-75
2022/09/30 08:46:36;;;;;;;;;24.00;22.00;;;;;;;;5070707;27;46586;-75
2022/09/30 08:49:02;;;;;;;;;22.67;21.00;;;;;;;;5068901;27;45505;-77
2022/09/30 08:51:27;;;;;;;;;26.67;26.00;;;;;;;;5082719;27;45465;-76
2022/09/30 08:53:53;;;;;;;;;29.33;25.67;;;;;;;;5074072;27;45719;-75
2022/09/30 08:56:21;;;;;;;;;26.67;24.33;;;;;;;;5069992;27;46122;-76
2022/09/30 08:58:48;;;;;;;;;28.33;23.33;;;;;;;;5077482;27;45614;-75
2022/09/30 09:01:19;;;;;;;;;24.33;22.67;;;;;;;;5062996;28;45458;-74
2022/09/30 09:03:45;;;;;;;;;36.00;28.00;;;;;;;;5057388;27;46254;-75
2022/09/30 09:06:25;;;;;;;;;24.33;23.33;;;;;;;;5085339;27;45351;-73
2022/09/30 09:08:54;;;;;;;;;26.00;22.00;;;;;;;;5085394;27;45521;-75
2022/09/30 09:11:35;;;;;;;;;25.00;22.33;;;;;;;;5076270;27;45941;-75
2022/09/30 09:14:24;;;;;;;;;27.00;23.33;;;;;;;;5078943;27;45953;-75
2022/09/30 09:17:00;;;;;;;;;29.67;23.33;;;;;;;;5081538;27;46006;-76
2022/09/30 09:19:37;;;;;;;;;29.33;27.67;;;;;;;;5091903;27;45564;-76
2022/09/30 09:22:02;;;;;;;;;29.67;25.00;;;;;;;;5080918;27;45358;-75
2022/09/30 09:24:29;;;;;;;;;22.33;18.67;;;;;;;;5079839;27;45689;-74
2022/09/30 09:26:56;;;;;;;;;22.67;18.33;;;;;;;;5048049;28;48158;-76
2022/09/30 09:29:31;;;;;;;;;20.67;19.00;;;;;;;;5054164;28;45675;-75
2022/09/30 09:31:58;;;;;;;;;20.67;19.33;;;;;;;;5073149;27;45584;-76
2022/09/30 09:34:24;;;;;;;;;24.00;18.33;;;;;;;;5051880;27;45543;-75
2022/09/30 09:36:52;;;;;;;;;18.67;16.33;;;;;;;;5074859;27;45856;-76
2022/09/30 09:39:41;;;;;;;;;12.67;11.33;;;;;;;;5089826;27;45768;-76
2022/09/30 09:42:10;;;;;;;;;14.33;12.67;;;;;;;;5038313;28;45808;-76
2022/09/30 09:44:47;;;;;;;;;17.00;16.33;;;;;;;;5056300;27;45891;-75
2022/09/30 09:47:14;;;;;;;;;16.33;14.67;;;;;;;;5070526;27;46176;-77
2022/09/30 09:49:43;;;;;;;;;13.67;13.00;;;;;;;;5083442;27;45592;-77
2022/09/30 09:52:11;;;;;;;;;10.00;10.00;;;;;;;;5067206;27;45905;-78
2022/09/30 09:54:44;;;;;;;;;13.25;12.50;;;;;;;;5082922;27;45401;-81
2022/09/30 09:57:11;;;;;;;;;13.75;11.25;;;;;;;;5062656;27;45512;-80
2022/09/30 09:59:38;;;;;;;;;14.25;12.00;;;;;;;;5076238;27;45481;-80
2022/09/30 10:02:20;;;;;;;;;11.75;11.75;;;;;;;;5058837;28;45494;-82
2022/09/30 10:04:50;;;;;;;;;11.00;11.00;;;;;;;;5083740;27;45340;-81
2022/09/30 10:07:18;;;;;;;;;13.50;12.00;;;;;;;;5081591;27;46089;-76
2022/09/30 10:09:44;;;;;;;;;12.00;12.00;;;;;;;;5075187;27;45810;-76
2022/09/30 10:12:12;;;;;;;;;10.25;9.00;;;;;;;;5058436;28;45780;-76
2022/09/30 10:14:44;;;;;;;;;11.00;11.00;;;;;;;;5075732;27;45614;-77
2022/09/30 10:17:30;;;;;;;;;11.50;10.00;;;;;;;;5062225;28;47203;-76
2022/09/30 10:20:18;;;;;;;;;9.00;9.00;;;;;;;;5041216;28;45649;-75
2022/09/30 10:22:44;;;;;;;;;12.50;8.75;;;;;;;;5064037;27;45824;-76
2022/09/30 10:25:16;;;;;;;;;10.25;10.25;;;;;;;;5065318;28;45825;-75
2022/09/30 10:27:49;;;;;;;;;10.00;10.00;;;;;;;;5045699;28;47009;-78
2022/09/30 10:30:30;;;;;;;;;13.00;13.00;;;;;;;;5049137;28;45399;-75
2022/09/30 10:32:55;;;;;;;;;11.25;8.75;;;;;;;;5061593;27;45462;-74
2022/09/30 10:35:22;;;;;;;;;12.00;11.00;;;;;;;;5058562;28;45451;-77
2022/09/30 10:37:51;;;;;;;;;12.25;11.50;;;;;;;;5035611;28;45618;-74
2022/09/30 10:40:17;;;;;;;;;11.00;9.25;;;;;;;;5062239;28;45973;-77
2022/09/30 10:42:46;;;;;;;;;11.50;11.50;;;;;;;;5079005;27;45790;-81
2022/09/30 10:45:20;;;;;;;;;11.50;9.25;;;;;;;;5074086;28;45561;-81
2022/09/30 10:47:48;;;;;;;;;11.00;11.00;;;;;;;;5087997;27;45480;-82
2022/09/30 10:50:19;;;;;;;;;10.50;10.25;;;;;;;;5050424;28;45607;-80
2022/09/30 10:52:50;;;;;;;;;11.00;9.00;;;;;;;;5071473;27;45520;-82
2022/09/30 10:55:18;;;;;;;;;11.25;9.25;;;;;;;;5075436;27;45567;-81
2022/09/30 10:57:43;;;;;;;;;10.00;9.50;;;;;;;;5070270;27;45802;-83
2022/09/30 11:00:09;;;;;;;;;10.75;7.25;;;;;;;;5046252;28;45769;-81
2022/09/30 11:02:43;;;;;;;;;6.25;6.25;;;;;;;;5054408;28;45392;-80
2022/09/30 11:05:08;;;;;;;;;9.75;8.50;;;;;;;;5062570;28;45736;-78
2022/09/30 11:07:52;;;;;;;;;8.75;8.75;;;;;;;;5076918;27;46602;-76
2022/09/30 11:10:40;;;;;;;;;7.00;5.25;;;;;;;;5066991;28;45395;-79
2022/09/30 11:13:05;;;;;;;;;6.00;6.00;;;;;;;;5073719;27;45903;-78
2022/09/30 11:15:36;;;;;;;;;2.75;2.75;;;;;;;;5064582;28;45882;-77
2022/09/30 11:18:06;;;;;;;;;4.75;3.75;;;;;;;;5060824;28;45814;-76
2022/09/30 11:20:36;;;;;;;;;4.00;4.00;;;;;;;;5071120;28;45452;-76
2022/09/30 11:23:12;;;;;;;;;6.00;4.00;;;;;;;;5070842;27;45792;-78
2022/09/30 11:25:42;;;;;;;;;4.25;3.25;;;;;;;;5056006;28;45379;-79
2022/09/30 11:28:19;;;;;;;;;8.50;5.00;;;;;;;;5055635;28;46396;-79
2022/09/30 11:30:54;;;;;;;;;3.00;3.00;;;;;;;;5068049;28;45419;-77
2022/09/30 11:33:19;;;;;;;;;6.50;6.00;;;;;;;;5053004;28;45464;-75
2022/09/30 11:35:53;;;;;;;;;5.00;4.67;;;;;;;;5069928;28;45442;-76
2022/09/30 11:38:21;;;;;;;;;4.00;4.00;;;;;;;;5061023;28;45537;-77
2022/09/30 11:41:08;;;;;;;;;3.00;1.50;;;;;;;;5070235;28;45881;-78
2022/09/30 11:43:36;;;;;;;;;2.33;2.33;;;;;;;;5069350;27;45476;-76
2022/09/30 11:46:07;;;;;;;;;5.00;3.33;;;;;;;;5041605;28;45964;-77
2022/09/30 11:48:45;;;;;;;;;6.00;5.00;;;;;;;;5066130;28;45686;-77
2022/09/30 11:51:29;;;;;;;;;4.33;4.33;;;;;;;;5069379;28;45559;-78
2022/09/30 11:53:57;;;;;;;;;4.33;4.33;;;;;;;;5066660;27;46000;-75
2022/09/30 11:56:22;;;;;;;;;8.00;6.33;;;;;;;;5056934;28;46630;-81
2022/09/30 11:58:50;;;;;;;;;8.00;6.33;;;;;;;;5065107;28;46538;-81
2022/09/30 12:01:21;;;;;;;;;5.00;5.00;;;;;;;;5067531;28;45398;-80
2022/09/30 12:04:06;;;;;;;;;5.00;5.00;;;;;;;;5086984;27;45800;-80
2022/09/30 12:06:38;;;;;;;;;4.00;4.00;;;;;;;;5060066;28;45754;-81
2022/09/30 12:09:11;;;;;;;;;5.00;5.00;;;;;;;;5083770;27;45469;-74
2022/09/30 12:11:36;;;;;;;;;3.33;3.33;;;;;;;;5068884;27;45321;-75
2022/09/30 12:14:09;;;;;;;;;3.33;3.00;;;;;;;;5078470;27;45703;-74
2022/09/30 12:16:36;;;;;;;;;4.50;3.50;;;;;;;;5051639;28;45743;-76
2022/09/30 12:19:08;;;;;;;;;2.67;2.67;;;;;;;;5057955;27;46499;-76
2022/09/30 12:21:47;;;;;;;;;4.00;3.00;;;;;;;;5081155;27;46064;-80
2022/09/30 12:24:14;;;;;;;;;4.00;3.00;;;;;;;;5086169;27;45326;-76
2022/09/30 12:26:40;;;;;;;;;4.00;4.00;;;;;;;;5077505;27;45965;-75
2022/09/30 12:31:55;;;;;;;;;4.67;2.00;;;;;;;;5071667;27;45480;-74
2022/09/30 12:34:30;;;;;;;;;3.33;3.33;;;;;;;;5080064;27;45703;-73
2022/09/30 12:37:22;;;;;;;;;3.33;2.00;;;;;;;;5062022;27;45953;-75
2022/09/30 12:40:06;;;;;;;;;2.00;2.00;;;;;;;;5067949;27;45849;-73
2022/09/30 12:42:41;;;;;;;;;2.00;2.00;;;;;;;;5090342;27;45466;-79
2022/09/30 12:45:24;;;;;;;;;2.00;2.00;;;;;;;;5091279;27;45477;-81
2022/09/30 12:47:53;;;;;;;;;1.00;1.00;;;;;;;;5093222;27;45478;-79
2022/09/30 12:50:20;;;;;;;;;1.33;1.33;;;;;;;;5084512;27;45811;-78
2022/09/30 12:52:46;;;;;;;;;1.00;1.00;;;;;;;;5072521;28;45884;-79
2022/09/30 12:55:18;;;;;;;;;3.67;2.00;;;;;;;;5064391;28;45672;-79
2022/09/30 12:57:45;;;;;;;;;3.00;2.00;;;;;;;;5040733;28;45926;-74
2022/09/30 13:00:21;;;;;;;;;3.67;2.33;;;;;;;;5042060;27;47263;-74
2022/09/30 13:02:52;;;;;;;;;1.25;1.25;;;;;;;;5075373;27;45539;-73
2022/09/30 13:05:26;;;;;;;;;2.33;1.00;;;;;;;;5064603;27;45922;-75
2022/09/30 13:08:04;;;;;;;;;1.50;0.75;;;;;;;;5073592;27;45689;-74
2022/09/30 13:10:52;;;;;;;;;2.00;2.00;;;;;;;;5065045;27;45532;-74
2022/09/30 13:13:18;;;;;;;;;1.75;1.75;;;;;;;;5065558;27;45890;-73
2022/09/30 13:15:44;;;;;;;;;2.33;1.00;;;;;;;;5072305;27;45410;-79
2022/09/30 13:18:18;;;;;;;;;2.00;2.00;;;;;;;;5072229;27;45482;-80
2022/09/30 13:21:15;;;;;;;;;2.00;2.00;;;;;;;;5073214;27;46964;-80
2022/09/30 13:23:41;;;;;;;;;1.00;1.00;;;;;;;;5075124;27;45676;-80
2022/09/30 13:26:27;;;;;;;;;2.25;2.25;;;;;;;;5069046;27;45905;-75
2022/09/30 13:28:54;;;;;;;;;3.00;2.00;;;;;;;;5070332;28;45759;-74
2022/09/30 13:31:20;;;;;;;;;2.00;2.00;;;;;;;;5072023;27;46247;-75
2022/09/30 13:33:58;;;;;;;;;4.33;3.00;;;;;;;;5074641;28;45782;-82
2022/09/30 13:36:25;;;;;;;;;2.00;2.00;;;;;;;;5059335;28;45438;-79
2022/09/30 13:39:05;;;;;;;;;1.67;1.67;;;;;;;;5072662;28;46095;-80
2022/09/30 13:41:32;;;;;;;;;1.00;1.00;;;;;;;;5064196;28;47337;-82
2022/09/30 13:44:04;;;;;;;;;2.75;2.75;;;;;;;;5050056;28;45677;-81
2022/09/30 13:46:34;;;;;;;;;1.33;1.33;;;;;;;;5065419;27;45538;-81
2022/09/30 13:49:08;;;;;;;;;1.00;1.00;;;;;;;;5068198;28;45269;-81
2022/09/30 13:51:33;;;;;;;;;1.00;1.00;;;;;;;;5048317;28;46984;-81
2022/09/30 13:54:05;;;;;;;;;1.33;1.33;;;;;;;;5069996;28;45639;-81
2022/09/30 13:56:33;;;;;;;;;5.00;3.67;;;;;;;;5066260;28;45466;-81
2022/09/30 13:59:01;;;;;;;;;1.67;1.67;;;;;;;;5065321;28;46262;-81
2022/09/30 14:01:43;;;;;;;;;2.67;2.67;;;;;;;;5070670;28;46605;-79
2022/09/30 14:04:16;;;;;;;;;3.67;3.67;;;;;;;;5055574;27;45372;-75
2022/09/30 14:06:59;;;;;;;;;3.00;3.00;;;;;;;;5053705;27;45735;-74
2022/09/30 14:09:40;;;;;;;;;2.00;2.00;;;;;;;;5062211;27;45560;-73
2022/09/30 14:12:11;;;;;;;;;3.00;2.00;;;;;;;;5078910;27;45791;-79
2022/09/30 14:14:36;;;;;;;;;2.00;2.00;;;;;;;;5077887;27;45536;-79
2022/09/30 14:17:37;;;;;;;;;2.00;1.50;;;;;;;;5055981;28;45905;-78
2022/09/30 14:20:02;;;;;;;;;3.00;2.00;;;;;;;;5000694;28;45820;-80
2022/09/30 14:22:28;;;;;;;;;2.25;2.25;;;;;;;;5051678;28;46066;-78
2022/09/30 14:24:54;;;;;;;;;3.33;1.33;;;;;;;;5062584;28;45922;-79
2022/09/30 14:27:27;;;;;;;;;1.75;1.00;;;;;;;;5072546;27;46028;-80
2022/09/30 14:30:02;;;;;;;;;2.00;2.00;;;;;;;;5086340;27;45807;-81
2022/09/30 14:32:30;;;;;;;;;2.00;2.00;;;;;;;;5077788;27;45521;-79
2022/09/30 14:34:56;;;;;;;;;2.75;1.50;;;;;;;;5092488;27;45738;-79
2022/09/30 14:37:42;;;;;;;;;1.50;1.50;;;;;;;;5077352;27;45564;-79
2022/09/30 14:40:14;;;;;;;;;2.00;2.00;;;;;;;;5071507;28;45426;-80
2022/09/30 14:42:41;;;;;;;;;1.33;1.33;;;;;;;;5073533;28;45519;-79
2022/09/30 14:45:08;;;;;;;;;4.33;2.00;;;;;;;;5065527;27;45536;-79